Bookmark and Share
Track history (hours):
 

Volgo-balt 229

Last reported at 2014-Apr-18 12:10 UTC. Time now 2014-Apr-23 19:15 UTC.
Position N 54°36' E 011°16'.

Length 114 m; draft 3.5 m.

Type: Cargo ship. MMSI: 273336300.

NotesDate/timePositionNaut miles runAvg speedWind from/ knotsBaromVisibWave heightAir tempDewpointWater temp
2014-Apr-18 12:10N 54°36' E 011°16'4 5.7
2014-Apr-18 11:33N 54°34' E 011°21'7 6.0
2014-Apr-18 10:19N 54°31' E 011°33'6 6.4
2014-Apr-18 09:24N 54°28' E 011°42'5 6.2
2014-Apr-18 08:33N 54°27' E 011°51'6 5.8
2014-Apr-18 07:32N 54°27' E 012°01'5 5.3
2014-Apr-18 06:33N 54°28' E 012°10'7 6.2
2014-Apr-18 05:29N 54°34' E 012°13'5 5.8
2014-Apr-18 04:33N 54°39' E 012°18'6 6.2
2014-Apr-18 03:32N 54°42' E 012°27'8 5.7
2014-Apr-18 02:06N 54°46' E 012°39'17 5.6
2014-Apr-17 23:05N 54°52' E 013°07'3 5.9
2014-Apr-17 22:30N 54°53' E 013°12'7 5.9
2014-Apr-17 21:19N 54°54' E 013°24'4 5.4
2014-Apr-17 20:33N 54°54' E 013°31'5 5.1
2014-Apr-17 19:33N 54°54' E 013°40'5 5.0
2014-Apr-17 18:33N 54°54' E 013°49'5 5.3
2014-Apr-17 17:32N 54°54' E 013°59'5 5.3
2014-Apr-17 16:33N 54°55' E 014°08'6 5.6
2014-Apr-17 15:33N 54°55' E 014°17'6 5.6
2014-Apr-17 14:33N 54°55' E 014°27'6 5.7
2014-Apr-17 13:30N 54°55' E 014°37'95 7.3
2014-Apr-17 00:33N 55°31' E 017°11'7 7.4
2014-Apr-16 23:33N 55°34' E 017°22'8 7.5
2014-Apr-16 22:29N 55°38' E 017°35'  

Dump ship's entire track history

sailing weather and tide predictions

Volgo-balt 229 — UHZF — position and weather